createdAt,value
2017-08-26T00:00:57.127Z,15.00
2017-08-26T00:03:24.695Z,15.00
2017-08-26T00:05:52.231Z,14.90
2017-08-26T00:08:19.799Z,14.90
2017-08-26T00:10:47.335Z,14.90
2017-08-26T00:13:14.917Z,14.90
2017-08-26T00:15:42.446Z,14.80
2017-08-26T00:18:10.023Z,14.80
2017-08-26T00:20:37.559Z,14.80
2017-08-26T00:23:05.092Z,14.80
2017-08-26T00:25:32.699Z,14.80
2017-08-26T00:28:00.258Z,14.80
2017-08-26T00:30:27.789Z,14.80
2017-08-26T00:32:56.107Z,14.80
2017-08-26T00:35:23.658Z,14.70
2017-08-26T00:37:51.191Z,14.70
2017-08-26T00:40:19.506Z,14.70
2017-08-26T00:42:47.060Z,14.70
2017-08-26T00:45:14.618Z,14.60
2017-08-26T00:47:42.182Z,14.70
2017-08-26T00:50:09.738Z,14.60
2017-08-26T00:52:37.262Z,14.60
2017-08-26T00:55:04.858Z,14.50
2017-08-26T00:57:32.430Z,14.60
2017-08-26T00:59:59.959Z,14.60
2017-08-26T01:02:27.488Z,14.60
2017-08-26T01:04:55.112Z,14.60
2017-08-26T01:07:28.251Z,14.50
2017-08-26T01:09:55.787Z,14.50
2017-08-26T01:12:23.342Z,14.50
2017-08-26T01:14:50.870Z,14.50
2017-08-26T01:17:19.203Z,14.50
2017-08-26T01:19:46.748Z,14.50
2017-08-26T01:22:14.303Z,14.50
2017-08-26T01:24:41.879Z,14.60
2017-08-26T01:27:09.410Z,14.50
2017-08-26T01:29:36.993Z,14.50
2017-08-26T01:32:04.561Z,14.50
2017-08-26T01:34:32.214Z,14.50
2017-08-26T01:36:59.783Z,14.60
2017-08-26T01:39:27.335Z,14.50
2017-08-26T01:41:54.865Z,14.50
2017-08-26T01:44:23.184Z,14.40
2017-08-26T01:46:50.714Z,14.40
2017-08-26T01:49:18.267Z,14.40
2017-08-26T01:51:45.797Z,14.40
2017-08-26T01:54:13.357Z,14.40
2017-08-26T01:56:40.892Z,14.40
2017-08-26T01:59:08.429Z,14.40
2017-08-26T02:01:35.962Z,14.40
2017-08-26T02:04:03.486Z,14.40
2017-08-26T02:06:31.034Z,14.30
2017-08-26T02:08:58.564Z,14.30
2017-08-26T02:11:26.110Z,14.30
2017-08-26T02:13:53.632Z,14.30
2017-08-26T02:16:21.183Z,14.30
2017-08-26T02:18:48.711Z,14.20
2017-08-26T02:21:16.263Z,14.20
2017-08-26T02:23:43.794Z,14.30
2017-08-26T02:26:11.347Z,14.20
2017-08-26T02:28:38.958Z,14.20
2017-08-26T02:31:06.522Z,14.20
2017-08-26T02:33:34.051Z,14.20
2017-08-26T02:36:01.583Z,14.20
2017-08-26T02:38:29.440Z,14.20
2017-08-26T02:40:57.084Z,14.20
2017-08-26T02:43:24.743Z,14.10
2017-08-26T02:45:52.270Z,14.10
2017-08-26T02:48:19.826Z,14.10
2017-08-26T02:50:48.118Z,14.10
2017-08-26T02:53:15.700Z,14.10
2017-08-26T02:55:43.223Z,14.10
2017-08-26T02:58:10.818Z,14.10
2017-08-26T03:00:38.382Z,14.10
2017-08-26T03:03:05.910Z,14.10
2017-08-26T03:05:33.439Z,14.10
2017-08-26T03:08:01.740Z,14.00
2017-08-26T03:10:29.268Z,14.10
2017-08-26T03:12:56.793Z,14.10
2017-08-26T03:15:24.331Z,14.20
2017-08-26T03:17:51.858Z,14.30
2017-08-26T03:20:19.411Z,14.30
2017-08-26T03:22:46.940Z,14.40
2017-08-26T03:25:14.474Z,14.40
2017-08-26T03:27:42.003Z,14.40
2017-08-26T03:30:09.527Z,14.50
2017-08-26T03:32:37.054Z,14.40
2017-08-26T03:35:05.347Z,14.50
2017-08-26T03:37:32.872Z,14.50
2017-08-26T03:40:00.407Z,14.50
2017-08-26T03:42:27.937Z,14.50
2017-08-26T03:44:55.472Z,14.40
2017-08-26T03:47:23.767Z,14.40
2017-08-26T03:49:51.291Z,14.40
2017-08-26T03:52:18.824Z,14.40
2017-08-26T03:54:46.356Z,14.30
2017-08-26T03:57:13.909Z,14.30
2017-08-26T03:59:41.441Z,14.30
2017-08-26T04:02:09.006Z,14.40
2017-08-26T04:04:36.542Z,14.40
2017-08-26T04:07:04.080Z,14.50
2017-08-26T04:09:31.618Z,14.50
2017-08-26T04:11:59.154Z,14.40
2017-08-26T04:14:26.695Z,14.40
2017-08-26T04:16:54.227Z,14.40
2017-08-26T04:19:21.760Z,14.40
2017-08-26T04:21:49.292Z,14.30
2017-08-26T04:24:16.839Z,14.30
2017-08-26T04:26:44.375Z,14.30
2017-08-26T04:29:11.911Z,14.30
2017-08-26T04:31:39.453Z,14.30
2017-08-26T04:34:06.983Z,14.40
2017-08-26T04:36:34.519Z,14.40
2017-08-26T04:39:02.079Z,14.50
2017-08-26T04:41:29.666Z,14.50
2017-08-26T04:43:57.226Z,14.50
2017-08-26T04:46:24.758Z,14.50
2017-08-26T04:48:52.287Z,14.60
2017-08-26T04:51:19.819Z,14.60
2017-08-26T04:53:47.346Z,14.70
2017-08-26T04:56:14.881Z,14.70
2017-08-26T04:58:42.411Z,14.70
2017-08-26T05:01:09.963Z,14.70
2017-08-26T05:03:37.489Z,14.70
2017-08-26T05:06:05.043Z,14.70
2017-08-26T05:08:32.576Z,14.80
2017-08-26T05:11:00.143Z,14.80
2017-08-26T05:13:27.668Z,14.90
2017-08-26T05:16:04.886Z,14.90
2017-08-26T05:18:32.410Z,14.90
2017-08-26T05:20:59.939Z,15.00
2017-08-26T05:23:27.466Z,15.00
2017-08-26T05:25:55.108Z,15.10
2017-08-26T05:28:22.647Z,15.10
2017-08-26T05:30:50.208Z,15.10
2017-08-26T05:33:17.762Z,15.10
2017-08-26T05:35:45.294Z,15.20
2017-08-26T05:38:13.610Z,15.10
2017-08-26T05:40:41.138Z,15.10
2017-08-26T05:43:08.723Z,15.10
2017-08-26T05:45:36.254Z,15.20
2017-08-26T05:48:03.790Z,15.20
2017-08-26T05:50:31.322Z,15.30
2017-08-26T05:52:58.852Z,15.30
2017-08-26T05:55:26.462Z,15.40
2017-08-26T05:57:53.999Z,15.40
2017-08-26T06:00:21.535Z,15.40
2017-08-26T06:02:49.072Z,15.40
2017-08-26T06:05:16.611Z,15.50
2017-08-26T06:07:44.142Z,15.50
2017-08-26T06:10:11.700Z,15.50
2017-08-26T06:12:39.243Z,15.60
2017-08-26T06:15:07.588Z,15.80
2017-08-26T06:17:35.126Z,15.80
2017-08-26T06:20:02.673Z,15.90
2017-08-26T06:22:30.206Z,16.10
2017-08-26T06:24:57.738Z,16.20
2017-08-26T06:27:25.274Z,16.30
2017-08-26T06:29:52.810Z,16.20
2017-08-26T06:32:20.347Z,16.30
2017-08-26T06:34:47.882Z,16.40
2017-08-26T06:37:15.407Z,16.30
2017-08-26T06:39:42.938Z,16.20
2017-08-26T06:42:11.259Z,16.20
2017-08-26T06:44:38.791Z,16.20
2017-08-26T06:47:06.342Z,16.20
2017-08-26T06:49:34.642Z,16.30
2017-08-26T06:52:02.199Z,16.30
2017-08-26T06:54:29.820Z,16.30
2017-08-26T06:56:57.515Z,16.40
2017-08-26T06:59:25.067Z,16.40
2017-08-26T07:01:52.631Z,16.50
2017-08-26T07:04:20.158Z,16.50
2017-08-26T07:06:47.695Z,16.50
2017-08-26T07:09:15.228Z,16.60
2017-08-26T07:11:42.754Z,16.70
2017-08-26T07:14:10.301Z,16.70
2017-08-26T07:16:37.830Z,16.80
2017-08-26T07:19:05.359Z,16.80
2017-08-26T07:21:32.904Z,16.90
2017-08-26T07:24:00.467Z,17.10
2017-08-26T07:26:28.763Z,17.70
2017-08-26T07:28:56.343Z,17.70
2017-08-26T07:31:23.875Z,17.80
2017-08-26T07:33:51.439Z,17.80
2017-08-26T07:36:18.979Z,17.90
2017-08-26T07:38:46.532Z,18.30
2017-08-26T07:41:14.122Z,18.30
2017-08-26T07:43:41.695Z,18.40
2017-08-26T07:46:09.233Z,18.60
2017-08-26T07:48:36.773Z,18.70
2017-08-26T07:51:04.315Z,18.90
2017-08-26T07:53:31.852Z,19.20
2017-08-26T07:55:59.383Z,19.60
2017-08-26T07:58:26.918Z,19.60
2017-08-26T08:00:54.464Z,19.70
2017-08-26T08:03:22.004Z,20.00
2017-08-26T08:05:49.568Z,20.00
2017-08-26T08:08:17.116Z,20.00
2017-08-26T08:10:44.691Z,20.30
2017-08-26T08:13:12.219Z,20.90
2017-08-26T08:15:39.754Z,21.60
2017-08-26T08:18:07.296Z,22.10
2017-08-26T08:20:34.835Z,22.40
2017-08-26T08:23:02.399Z,22.30
2017-08-26T08:25:29.951Z,21.60
2017-08-26T08:27:57.519Z,20.90
2017-08-26T08:30:25.060Z,20.70
2017-08-26T08:32:52.586Z,20.80
2017-08-26T08:35:20.127Z,21.30
2017-08-26T08:37:47.671Z,21.90
2017-08-26T08:40:15.206Z,22.30
2017-08-26T08:42:42.739Z,22.20
2017-08-26T08:45:10.295Z,21.80
2017-08-26T08:47:37.822Z,21.50
2017-08-26T08:50:05.438Z,21.70
2017-08-26T08:52:32.967Z,21.30
2017-08-26T08:55:00.522Z,21.10
2017-08-26T08:57:28.055Z,21.40
2017-08-26T08:59:55.591Z,21.90
2017-08-26T09:02:23.121Z,22.50
2017-08-26T09:04:50.647Z,23.20
2017-08-26T09:07:18.211Z,23.90
2017-08-26T09:09:45.744Z,23.60
2017-08-26T09:12:13.299Z,22.50
2017-08-26T09:14:40.834Z,22.00
2017-08-26T09:17:08.366Z,21.60
2017-08-26T09:19:35.906Z,21.30
2017-08-26T09:22:03.439Z,21.30
2017-08-26T09:24:30.973Z,21.30
2017-08-26T09:26:58.502Z,21.20
2017-08-26T09:29:26.030Z,21.30
2017-08-26T09:31:53.563Z,21.30
2017-08-26T09:34:21.086Z,21.50
2017-08-26T09:36:48.611Z,21.60
2017-08-26T09:39:16.150Z,21.70
2017-08-26T09:41:43.675Z,22.10
2017-08-26T09:44:11.206Z,23.30
2017-08-26T09:46:38.775Z,24.20
2017-08-26T09:49:06.316Z,24.10
2017-08-26T09:51:33.850Z,24.50
2017-08-26T09:54:01.374Z,24.40
2017-08-26T09:56:28.915Z,24.50
2017-08-26T09:58:56.455Z,24.70
2017-08-26T10:01:24.087Z,24.80
2017-08-26T10:03:51.619Z,24.30
2017-08-26T10:06:19.152Z,23.60
2017-08-26T10:08:46.683Z,23.70
2017-08-26T10:11:14.209Z,24.00
2017-08-26T10:13:41.763Z,23.70
2017-08-26T10:16:09.296Z,24.10
2017-08-26T10:18:36.864Z,24.10
2017-08-26T10:21:04.395Z,24.40
2017-08-26T10:23:31.918Z,23.90
2017-08-26T10:25:59.442Z,23.60
2017-08-26T10:28:26.984Z,23.30
2017-08-26T10:30:54.515Z,23.50
2017-08-26T10:33:22.055Z,23.80
2017-08-26T10:35:49.593Z,23.50
2017-08-26T10:38:17.118Z,23.60
2017-08-26T10:40:44.652Z,23.70
2017-08-26T10:43:12.181Z,24.20
2017-08-26T10:45:39.751Z,24.00
2017-08-26T10:48:12.386Z,23.90
2017-08-26T10:50:39.958Z,24.10
2017-08-26T10:53:08.254Z,24.20
2017-08-26T10:55:35.784Z,24.20
2017-08-26T10:58:03.314Z,24.70
2017-08-26T11:00:30.843Z,24.70
2017-08-26T11:02:58.427Z,24.30
2017-08-26T11:05:25.959Z,24.20
2017-08-26T11:07:53.486Z,24.50
2017-08-26T11:10:21.012Z,24.30
2017-08-26T11:12:48.544Z,24.50
2017-08-26T11:15:16.080Z,25.10
2017-08-26T11:17:44.394Z,24.70
2017-08-26T11:20:11.923Z,24.70
2017-08-26T11:22:40.247Z,24.20
2017-08-26T11:25:07.780Z,24.10
2017-08-26T11:27:35.329Z,23.70
2017-08-26T11:30:02.850Z,23.80
2017-08-26T11:32:30.403Z,23.80
2017-08-26T11:34:57.930Z,24.10
2017-08-26T11:37:25.500Z,24.20
2017-08-26T11:39:53.033Z,24.00
2017-08-26T11:42:20.558Z,23.60
2017-08-26T11:44:48.087Z,23.70
2017-08-26T11:47:15.613Z,23.60
2017-08-26T11:49:43.906Z,23.40
2017-08-26T11:52:11.464Z,23.40
2017-08-26T11:54:39.010Z,23.70
2017-08-26T11:57:06.538Z,24.10
2017-08-26T11:59:42.207Z,24.40
2017-08-26T12:02:09.819Z,24.40
2017-08-26T12:04:37.387Z,24.30
2017-08-26T12:07:04.924Z,24.20
2017-08-26T12:09:32.503Z,23.70
2017-08-26T12:12:00.063Z,23.90
2017-08-26T12:14:27.591Z,23.50
2017-08-26T12:16:55.124Z,23.60
2017-08-26T12:19:22.650Z,23.50
2017-08-26T12:21:50.196Z,23.50
2017-08-26T12:24:17.731Z,23.50
2017-08-26T12:26:45.300Z,23.50
2017-08-26T12:29:12.836Z,23.30
2017-08-26T12:31:40.399Z,23.40
2017-08-26T12:34:07.942Z,23.90
2017-08-26T12:36:35.579Z,24.00
2017-08-26T12:39:03.115Z,23.80
2017-08-26T12:41:30.647Z,23.80
2017-08-26T12:43:58.254Z,23.60
2017-08-26T12:46:25.795Z,23.70
2017-08-26T12:48:53.376Z,24.00
2017-08-26T12:51:20.914Z,23.90
2017-08-26T12:53:48.479Z,24.20
2017-08-26T12:56:16.019Z,24.10
2017-08-26T12:58:43.576Z,24.30
2017-08-26T13:01:11.121Z,24.80
2017-08-26T13:03:44.661Z,24.90
2017-08-26T13:06:12.264Z,25.30
2017-08-26T13:08:39.919Z,25.20
2017-08-26T13:11:08.214Z,25.10
2017-08-26T13:13:35.737Z,25.10
2017-08-26T13:16:03.266Z,25.20
2017-08-26T13:18:30.794Z,25.20
2017-08-26T13:20:58.350Z,25.60
2017-08-26T13:23:25.902Z,25.50
2017-08-26T13:25:53.459Z,25.10
2017-08-26T13:28:20.987Z,25.00
2017-08-26T13:30:48.535Z,24.90
2017-08-26T13:33:16.066Z,25.00
2017-08-26T13:35:43.618Z,24.80
2017-08-26T13:38:11.152Z,24.80
2017-08-26T13:40:38.725Z,25.00
2017-08-26T13:43:06.258Z,24.90
2017-08-26T13:45:33.788Z,24.80
2017-08-26T13:48:01.323Z,24.60
2017-08-26T13:50:28.847Z,24.50
2017-08-26T13:52:56.397Z,24.30
2017-08-26T13:55:23.927Z,24.10
2017-08-26T13:57:51.485Z,24.30
2017-08-26T14:00:19.022Z,24.50
2017-08-26T14:02:46.577Z,24.70
2017-08-26T14:05:14.888Z,24.80
2017-08-26T14:07:42.551Z,24.70
2017-08-26T14:10:10.110Z,24.80
2017-08-26T14:12:37.681Z,24.70
2017-08-26T14:15:05.219Z,24.20
2017-08-26T14:17:32.802Z,24.30
2017-08-26T14:20:00.340Z,24.40
2017-08-26T14:22:27.879Z,24.10
2017-08-26T14:24:55.555Z,24.10
2017-08-26T14:27:23.095Z,24.20
2017-08-26T14:29:50.707Z,24.40
2017-08-26T14:32:18.255Z,24.50
2017-08-26T14:34:45.817Z,24.60
2017-08-26T14:37:13.358Z,24.70
2017-08-26T14:39:40.917Z,24.70
2017-08-26T14:42:08.451Z,24.70
2017-08-26T14:44:36.018Z,24.60
2017-08-26T14:47:03.563Z,24.40
2017-08-26T14:49:31.167Z,24.20
2017-08-26T14:51:58.737Z,24.30
2017-08-26T14:54:26.303Z,24.60
2017-08-26T14:56:53.860Z,24.80
2017-08-26T14:59:21.392Z,24.80
2017-08-26T15:01:48.957Z,24.40
2017-08-26T15:04:17.271Z,24.20
2017-08-26T15:06:44.803Z,24.20
2017-08-26T15:09:23.039Z,24.30
2017-08-26T15:11:50.574Z,24.50
2017-08-26T15:14:18.103Z,24.70
2017-08-26T15:16:45.719Z,24.70
2017-08-26T15:19:13.286Z,24.70
2017-08-26T15:21:40.862Z,25.10
2017-08-26T15:24:08.395Z,25.00
2017-08-26T15:26:35.997Z,24.90
2017-08-26T15:29:03.523Z,24.70
2017-08-26T15:31:31.124Z,24.60
2017-08-26T15:33:58.694Z,24.20
2017-08-26T15:36:26.223Z,24.20
2017-08-26T15:38:53.786Z,24.10
2017-08-26T15:41:21.323Z,24.00
2017-08-26T15:43:50.626Z,23.80
2017-08-26T15:46:18.222Z,23.70
2017-08-26T15:48:45.824Z,23.70
2017-08-26T15:51:13.384Z,23.80
2017-08-26T15:53:40.931Z,23.80
2017-08-26T15:56:15.119Z,23.90
2017-08-26T15:58:42.757Z,23.90
2017-08-26T16:01:10.648Z,24.00
2017-08-26T16:03:38.183Z,23.90
2017-08-26T16:06:05.773Z,23.90
2017-08-26T16:08:33.302Z,23.70
2017-08-26T16:11:00.833Z,23.70
2017-08-26T16:13:28.482Z,23.70
2017-08-26T16:15:56.128Z,23.70
2017-08-26T16:18:23.676Z,23.60
2017-08-26T16:20:51.219Z,23.60
2017-08-26T16:23:18.799Z,23.60
2017-08-26T16:25:46.332Z,23.40
2017-08-26T16:28:13.866Z,23.40
2017-08-26T16:30:42.166Z,23.30
2017-08-26T16:33:09.859Z,23.30
2017-08-26T16:35:40.339Z,23.20
2017-08-26T16:38:07.956Z,23.10
2017-08-26T16:40:35.500Z,22.80
2017-08-26T16:43:03.085Z,22.50
2017-08-26T16:48:24.879Z,22.10
2017-08-26T16:50:52.428Z,21.90
2017-08-26T16:53:19.960Z,21.80
2017-08-26T16:55:47.554Z,21.70
2017-08-26T16:58:15.090Z,21.70
2017-08-26T17:00:42.647Z,21.60
2017-08-26T17:03:10.188Z,21.60
2017-08-26T17:05:38.642Z,21.70
2017-08-26T17:08:06.179Z,21.70
2017-08-26T17:10:33.731Z,21.60
2017-08-26T17:13:01.283Z,21.50
2017-08-26T17:15:28.846Z,21.30
2017-08-26T17:17:56.386Z,21.20
2017-08-26T17:20:23.931Z,21.20
2017-08-26T17:22:51.464Z,21.30
2017-08-26T17:25:19.010Z,21.30
2017-08-26T17:27:46.573Z,21.20
2017-08-26T17:30:14.111Z,21.10
2017-08-26T17:32:41.667Z,21.00
2017-08-26T17:35:09.200Z,21.00
2017-08-26T17:37:37.526Z,21.00
2017-08-26T17:40:05.068Z,21.00
2017-08-26T17:42:32.623Z,21.00
2017-08-26T17:45:00.208Z,21.00
2017-08-26T17:47:27.766Z,21.00
2017-08-26T17:49:55.293Z,21.00
2017-08-26T17:52:23.631Z,21.00
2017-08-26T17:54:51.162Z,21.00
2017-08-26T17:57:18.726Z,21.00
2017-08-26T17:59:46.268Z,21.00
2017-08-26T18:02:13.847Z,21.10
2017-08-26T18:04:41.402Z,21.00
2017-08-26T18:07:08.934Z,21.00
2017-08-26T18:09:36.488Z,21.00
2017-08-26T18:12:04.018Z,21.00
2017-08-26T18:14:31.574Z,20.80
2017-08-26T18:16:59.112Z,20.70
2017-08-26T18:19:26.666Z,20.80
2017-08-26T18:21:54.198Z,20.80
2017-08-26T18:24:21.737Z,20.80
2017-08-26T18:26:49.298Z,20.80
2017-08-26T18:29:16.829Z,20.80
2017-08-26T18:31:44.451Z,20.70
2017-08-26T18:34:12.010Z,20.80
2017-08-26T18:36:39.584Z,20.60
2017-08-26T18:39:07.127Z,20.60
2017-08-26T18:41:34.719Z,20.60
2017-08-26T18:44:02.255Z,20.60
2017-08-26T18:46:29.839Z,20.60
2017-08-26T18:48:57.406Z,20.60
2017-08-26T18:51:24.964Z,20.60
2017-08-26T18:53:52.523Z,20.50
2017-08-26T18:56:20.055Z,20.60
2017-08-26T18:58:47.670Z,20.50
2017-08-26T19:01:15.207Z,20.50
2017-08-26T19:03:42.766Z,20.50
2017-08-26T19:06:10.331Z,20.50
2017-08-26T19:08:37.900Z,20.50
2017-08-26T19:11:05.442Z,20.40
2017-08-26T19:13:33.054Z,20.30
2017-08-26T19:16:00.611Z,20.30
2017-08-26T19:18:28.279Z,20.30
2017-08-26T19:20:55.835Z,20.20
2017-08-26T19:23:23.388Z,20.10
2017-08-26T19:25:50.928Z,20.10
2017-08-26T19:28:18.455Z,20.10
2017-08-26T19:30:46.087Z,20.10
2017-08-26T19:33:13.621Z,20.10
2017-08-26T19:35:41.209Z,20.10
2017-08-26T19:38:08.759Z,20.10
2017-08-26T19:40:36.347Z,20.00
2017-08-26T19:43:03.882Z,20.00
2017-08-26T19:45:31.416Z,20.00
2017-08-26T19:47:59.018Z,20.00
2017-08-26T19:50:26.562Z,20.00
2017-08-26T19:52:54.099Z,20.00
2017-08-26T19:55:21.638Z,20.00
2017-08-26T19:57:49.175Z,19.90
2017-08-26T20:00:16.738Z,19.90
2017-08-26T20:02:44.287Z,19.90
2017-08-26T20:05:11.827Z,19.80
2017-08-26T20:07:39.359Z,19.70
2017-08-26T20:10:06.926Z,19.70
2017-08-26T20:12:34.460Z,19.70
2017-08-26T20:15:02.066Z,19.60
2017-08-26T20:17:29.670Z,19.60
2017-08-26T20:19:57.304Z,19.50
2017-08-26T20:22:24.843Z,19.50
2017-08-26T20:24:52.378Z,19.50
2017-08-26T20:27:19.912Z,19.40
2017-08-26T20:29:47.453Z,19.40
2017-08-26T20:32:14.997Z,19.40
2017-08-26T20:34:42.540Z,19.40
2017-08-26T20:37:10.070Z,19.40
2017-08-26T20:39:37.601Z,19.30
2017-08-26T20:42:05.159Z,19.30
2017-08-26T20:44:32.695Z,19.30
2017-08-26T20:47:00.235Z,19.20
2017-08-26T20:49:27.818Z,19.20
2017-08-26T20:51:55.362Z,19.20
2017-08-26T20:54:22.895Z,19.20
2017-08-26T20:56:51.195Z,19.20
2017-08-26T20:59:18.726Z,19.10
2017-08-26T21:01:46.262Z,19.20
2017-08-26T21:04:13.794Z,19.20
2017-08-26T21:06:41.327Z,19.20
2017-08-26T21:09:09.637Z,19.20
2017-08-26T21:11:37.171Z,19.20
2017-08-26T21:14:04.735Z,19.20
2017-08-26T21:16:32.291Z,19.10
2017-08-26T21:18:59.847Z,19.10
2017-08-26T21:21:27.415Z,19.00
2017-08-26T21:23:55.086Z,19.00
2017-08-26T21:26:22.622Z,18.90
2017-08-26T21:28:50.163Z,18.90
2017-08-26T21:31:18.462Z,18.90
2017-08-26T21:33:46.043Z,18.80
2017-08-26T21:36:13.603Z,18.80
2017-08-26T21:38:41.163Z,18.70
2017-08-26T21:41:08.718Z,18.60
2017-08-26T21:43:36.256Z,18.50
2017-08-26T21:46:03.842Z,18.50
2017-08-26T21:48:31.382Z,18.50
2017-08-26T21:50:58.943Z,18.40
2017-08-26T21:53:26.474Z,18.30
2017-08-26T21:55:54.030Z,18.30
2017-08-26T21:58:21.567Z,18.20
2017-08-26T22:00:49.142Z,18.20
2017-08-26T22:03:16.676Z,18.30
2017-08-26T22:05:44.216Z,18.20
2017-08-26T22:08:11.747Z,18.20
2017-08-26T22:10:40.041Z,18.10
2017-08-26T22:13:07.579Z,18.10
2017-08-26T22:15:35.120Z,18.10
2017-08-26T22:18:02.650Z,18.10
2017-08-26T22:20:30.207Z,18.10
2017-08-26T22:22:57.738Z,18.10
2017-08-26T22:25:25.274Z,18.10
2017-08-26T22:27:52.815Z,18.00
2017-08-26T22:30:20.358Z,18.00
2017-08-26T22:32:47.992Z,18.00
2017-08-26T22:35:15.529Z,17.90
2017-08-26T22:37:43.066Z,17.80
2017-08-26T22:40:11.370Z,17.80
2017-08-26T22:42:38.946Z,17.80
2017-08-26T22:45:06.475Z,17.70
2017-08-26T22:47:34.014Z,17.70
2017-08-26T22:50:01.551Z,17.70
2017-08-26T22:52:29.081Z,17.80
2017-08-26T22:54:56.622Z,17.70
2017-08-26T22:57:24.154Z,17.70
2017-08-26T22:59:51.692Z,17.60
2017-08-26T23:02:19.227Z,17.70
2017-08-26T23:04:46.758Z,17.70
2017-08-26T23:07:14.291Z,17.60
2017-08-26T23:09:41.822Z,17.60
2017-08-26T23:12:10.183Z,17.50
2017-08-26T23:14:37.742Z,17.40
2017-08-26T23:17:05.275Z,17.40
2017-08-26T23:19:32.849Z,17.40
2017-08-26T23:22:00.395Z,17.40
2017-08-26T23:24:27.963Z,17.50
2017-08-26T23:26:55.494Z,17.50
2017-08-26T23:29:23.022Z,17.50
2017-08-26T23:31:50.551Z,17.40
2017-08-26T23:34:18.083Z,17.40
2017-08-26T23:36:45.704Z,17.30
2017-08-26T23:39:13.235Z,17.30
2017-08-26T23:41:40.772Z,17.30
2017-08-26T23:44:08.303Z,17.20
2017-08-26T23:46:35.858Z,17.20
2017-08-26T23:49:03.399Z,17.20
2017-08-26T23:51:30.963Z,17.20
2017-08-26T23:53:58.490Z,17.20
2017-08-26T23:56:26.083Z,17.10
2017-08-26T23:58:53.627Z,17.10
